createdAt,value
2022-08-02T00:00:38.374Z,78.00
2022-08-02T00:03:05.289Z,78.70
2022-08-02T00:05:32.434Z,78.10
2022-08-02T00:07:59.388Z,78.20
2022-08-02T00:10:26.292Z,78.40
2022-08-02T00:12:53.788Z,78.60
2022-08-02T00:15:22.145Z,78.40
2022-08-02T00:17:49.051Z,78.90
2022-08-02T00:20:16.460Z,78.80
2022-08-02T00:22:43.512Z,79.20
2022-08-02T00:25:10.624Z,79.20
2022-08-02T00:27:37.554Z,79.50
2022-08-02T00:30:05.026Z,79.40
2022-08-02T00:32:32.017Z,79.60
2022-08-02T00:34:58.914Z,79.70
2022-08-02T00:37:25.840Z,80.10
2022-08-02T00:39:52.736Z,79.90
2022-08-02T00:42:19.913Z,80.00
2022-08-02T00:44:46.817Z,80.10
2022-08-02T00:47:19.128Z,80.10
2022-08-02T00:49:46.782Z,80.10
2022-08-02T00:52:13.981Z,80.10
2022-08-02T00:54:41.176Z,80.40
2022-08-02T00:57:08.212Z,80.70
2022-08-02T00:59:35.108Z,80.70
2022-08-02T01:02:02.100Z,80.80
2022-08-02T01:04:31.584Z,81.10
2022-08-02T01:07:01.379Z,81.10
2022-08-02T01:09:30.433Z,81.40
2022-08-02T01:11:57.345Z,81.50
2022-08-02T01:14:29.702Z,81.60
2022-08-02T01:17:43.067Z,81.70
2022-08-02T01:20:38.364Z,82.40
2022-08-02T01:23:58.713Z,81.80
2022-08-02T01:26:49.274Z,82.30
2022-08-02T01:29:21.261Z,82.30
2022-08-02T01:32:16.676Z,82.40
2022-08-02T01:34:53.617Z,82.70
2022-08-02T01:37:35.873Z,82.70
2022-08-02T01:40:09.599Z,83.40
2022-08-02T01:42:40.143Z,83.10
2022-08-02T01:45:09.560Z,83.20
2022-08-02T01:47:40.525Z,83.50
2022-08-02T01:50:11.128Z,83.60
2022-08-02T01:52:53.168Z,83.60
2022-08-02T01:55:33.635Z,83.80
2022-08-02T01:58:14.670Z,83.70
2022-08-02T02:00:42.883Z,83.60
2022-08-02T02:03:18.437Z,83.90
2022-08-02T02:05:48.650Z,84.20
2022-08-02T02:08:27.467Z,84.20
2022-08-02T02:10:56.713Z,84.10
2022-08-02T02:13:33.374Z,84.10
2022-08-02T02:16:04.137Z,84.30
2022-08-02T02:18:34.473Z,84.30
2022-08-02T02:21:01.397Z,84.10
2022-08-02T02:23:30.150Z,84.20
2022-08-02T02:26:05.454Z,84.20
2022-08-02T02:28:37.318Z,84.30
2022-08-02T02:31:10.212Z,84.40
2022-08-02T02:33:51.452Z,84.60
2022-08-02T02:36:20.188Z,84.50
2022-08-02T02:38:48.673Z,84.30
2022-08-02T02:41:17.618Z,84.50
2022-08-02T02:43:46.005Z,84.60
2022-08-02T02:46:13.253Z,84.60
2022-08-02T02:48:40.713Z,84.70
2022-08-02T02:51:14.030Z,84.80
2022-08-02T02:54:30.519Z,84.90
2022-08-02T02:56:30.384Z,85.00
2022-08-02T02:58:57.841Z,85.00
2022-08-02T03:01:55.248Z,84.90
2022-08-02T03:04:15.651Z,85.00
2022-08-02T03:06:42.677Z,84.90
2022-08-02T03:09:11.452Z,84.90
2022-08-02T03:11:39.715Z,85.10
2022-08-02T03:14:11.688Z,85.20
2022-08-02T03:16:47.801Z,85.40
2022-08-02T03:19:15.448Z,85.70
2022-08-02T03:21:44.653Z,85.40
2022-08-02T03:24:12.457Z,85.50
2022-08-02T03:26:39.624Z,85.60
2022-08-02T03:29:09.946Z,85.60
2022-08-02T03:31:41.864Z,85.40
2022-08-02T03:34:09.118Z,85.80
2022-08-02T03:36:37.460Z,85.70
2022-08-02T03:39:05.471Z,85.90
2022-08-02T03:41:33.345Z,86.10
2022-08-02T03:44:01.048Z,86.30
2022-08-02T03:46:28.192Z,86.70
2022-08-02T03:48:55.922Z,87.60
2022-08-02T03:51:23.442Z,87.90
2022-08-02T03:53:50.872Z,87.50
2022-08-02T03:56:18.321Z,87.30
2022-08-02T03:58:49.042Z,87.10
2022-08-02T04:01:16.514Z,86.90
2022-08-02T04:03:43.685Z,86.90
2022-08-02T04:06:10.643Z,86.90
2022-08-02T04:08:38.856Z,86.80
2022-08-02T04:11:25.129Z,86.90
2022-08-02T04:13:54.719Z,87.00
2022-08-02T04:16:34.952Z,87.20
2022-08-02T04:19:04.168Z,87.60
2022-08-02T04:21:50.275Z,87.60
2022-08-02T04:24:24.534Z,87.80
2022-08-02T04:26:57.960Z,87.60
2022-08-02T04:29:30.595Z,87.90
2022-08-02T04:31:57.669Z,87.90
2022-08-02T04:34:24.722Z,88.00
2022-08-02T04:36:52.073Z,87.90
2022-08-02T04:39:19.623Z,87.90
2022-08-02T04:41:47.966Z,88.60
2022-08-02T04:44:15.137Z,88.00
2022-08-02T04:46:44.621Z,88.00
2022-08-02T04:49:12.110Z,88.10
2022-08-02T04:51:42.218Z,88.00
2022-08-02T04:54:11.458Z,88.00
2022-08-02T04:56:39.437Z,87.90
2022-08-02T04:59:07.296Z,87.90
2022-08-02T05:01:35.663Z,87.80
2022-08-02T05:04:03.322Z,87.80
2022-08-02T05:06:30.326Z,87.80
2022-08-02T05:08:57.351Z,87.70
2022-08-02T05:11:34.198Z,87.70
2022-08-02T05:14:02.123Z,87.40
2022-08-02T05:16:31.050Z,87.20
2022-08-02T05:19:03.296Z,87.00
2022-08-02T05:21:31.788Z,86.90
2022-08-02T05:23:59.028Z,86.80
2022-08-02T05:26:25.956Z,86.80
2022-08-02T05:28:52.876Z,87.60
2022-08-02T05:31:20.212Z,86.50
2022-08-02T05:33:47.375Z,86.50
2022-08-02T05:36:14.258Z,86.60
2022-08-02T05:38:42.775Z,86.50
2022-08-02T05:41:19.129Z,86.40
2022-08-02T05:43:47.052Z,86.40
2022-08-02T05:46:14.225Z,86.30
2022-08-02T05:48:41.177Z,86.10
2022-08-02T05:51:19.953Z,86.00
2022-08-02T05:53:59.309Z,85.80
2022-08-02T05:56:47.651Z,86.00
2022-08-02T05:59:48.614Z,85.70
2022-08-02T06:02:30.745Z,85.50
2022-08-02T06:05:16.809Z,85.70
2022-08-02T06:07:45.502Z,85.30
2022-08-02T06:10:14.546Z,85.10
2022-08-02T06:13:14.655Z,84.80
2022-08-02T06:15:53.480Z,83.80
2022-08-02T06:18:28.462Z,83.90
2022-08-02T06:22:32.444Z,83.70
2022-08-02T06:23:57.539Z,83.20
2022-08-02T06:26:27.184Z,82.60
2022-08-02T06:28:57.031Z,81.40
2022-08-02T06:31:24.290Z,80.70
2022-08-02T06:33:51.210Z,80.20
2022-08-02T06:36:46.293Z,80.30
2022-08-02T06:39:44.741Z,79.50
2022-08-02T06:42:16.477Z,79.00
2022-08-02T06:44:57.747Z,79.70
2022-08-02T06:47:25.803Z,79.70
2022-08-02T06:49:54.397Z,79.30
2022-08-02T06:52:31.607Z,79.20
2022-08-02T06:55:00.440Z,79.30
2022-08-02T06:57:28.656Z,80.00
2022-08-02T06:59:55.589Z,79.90
2022-08-02T07:02:22.850Z,79.70
2022-08-02T07:04:50.067Z,79.30
2022-08-02T07:07:17.076Z,78.60
2022-08-02T07:09:56.764Z,78.00
2022-08-02T07:12:32.579Z,77.70
2022-08-02T07:15:02.191Z,77.70
2022-08-02T07:17:30.067Z,77.90
2022-08-02T07:19:57.907Z,77.80
2022-08-02T07:22:26.886Z,77.20
2022-08-02T07:24:56.229Z,76.70
2022-08-02T07:27:23.858Z,76.50
2022-08-02T07:29:51.022Z,75.90
2022-08-02T07:32:20.455Z,75.70
2022-08-02T07:34:51.393Z,75.30
2022-08-02T07:37:35.359Z,73.80
2022-08-02T07:40:20.097Z,72.40
2022-08-02T07:42:52.229Z,72.60
2022-08-02T07:45:20.825Z,72.30
2022-08-02T07:47:47.845Z,71.40
2022-08-02T07:50:16.851Z,70.40
2022-08-02T07:52:45.264Z,66.30
2022-08-02T07:55:14.313Z,65.90
2022-08-02T07:57:46.195Z,65.50
2022-08-02T08:00:16.249Z,65.60
2022-08-02T08:02:44.224Z,65.50
2022-08-02T08:05:12.011Z,65.80
2022-08-02T08:07:39.496Z,65.00
2022-08-02T08:10:07.948Z,61.50
2022-08-02T08:12:34.859Z,62.80
2022-08-02T08:15:01.944Z,62.60
2022-08-02T08:17:28.924Z,62.90
2022-08-02T08:19:55.909Z,62.90
2022-08-02T08:22:23.051Z,61.30
2022-08-02T08:24:50.367Z,61.40
2022-08-02T08:27:22.471Z,61.80
2022-08-02T08:29:49.926Z,61.40
2022-08-02T08:32:17.879Z,61.60
2022-08-02T08:34:49.544Z,60.40
2022-08-02T08:37:18.045Z,60.00
2022-08-02T08:39:57.979Z,59.60
2022-08-02T08:42:27.192Z,59.90
2022-08-02T08:44:56.617Z,60.30
2022-08-02T08:47:42.796Z,59.50
2022-08-02T08:50:24.773Z,59.30
2022-08-02T08:53:03.339Z,58.90
2022-08-02T08:55:31.192Z,59.20
2022-08-02T08:58:00.563Z,57.40
2022-08-02T09:00:28.215Z,57.10
2022-08-02T09:02:55.142Z,57.40
2022-08-02T09:05:22.174Z,56.90
2022-08-02T09:07:53.551Z,57.90
2022-08-02T09:10:47.215Z,57.00
2022-08-02T09:13:38.085Z,56.40
2022-08-02T09:16:14.472Z,55.90
2022-08-02T09:18:47.309Z,55.50
2022-08-02T09:21:16.605Z,54.90
2022-08-02T09:23:49.870Z,55.50
2022-08-02T09:26:23.695Z,54.10
2022-08-02T09:28:53.242Z,54.20
2022-08-02T09:31:24.408Z,54.50
2022-08-02T09:33:57.121Z,54.80
2022-08-02T09:36:25.613Z,54.20
2022-08-02T09:38:57.280Z,54.40
2022-08-02T09:41:28.098Z,53.50
2022-08-02T09:44:05.451Z,52.50
2022-08-02T09:46:39.757Z,52.50
2022-08-02T09:49:10.284Z,53.20
2022-08-02T09:51:47.691Z,54.30
2022-08-02T09:54:20.907Z,54.00
2022-08-02T09:57:01.995Z,54.10
2022-08-02T09:59:29.733Z,53.90
2022-08-02T10:02:02.205Z,54.70
2022-08-02T10:04:34.252Z,54.40
2022-08-02T10:07:04.366Z,54.30
2022-08-02T10:09:32.458Z,54.50
2022-08-02T10:12:01.108Z,54.50
2022-08-02T10:14:28.547Z,53.80
2022-08-02T10:16:57.741Z,54.40
2022-08-02T10:20:00.340Z,54.50
2022-08-02T10:22:15.655Z,53.70
2022-08-02T10:24:48.146Z,52.30
2022-08-02T10:27:22.567Z,52.50
2022-08-02T10:29:54.763Z,51.20
2022-08-02T10:32:33.544Z,52.10
2022-08-02T10:35:20.043Z,52.70
2022-08-02T10:37:58.625Z,53.30
2022-08-02T10:40:28.569Z,53.00
2022-08-02T10:43:01.199Z,52.70
2022-08-02T10:45:28.838Z,53.30
2022-08-02T10:48:14.477Z,53.60
2022-08-02T10:50:47.923Z,53.50
2022-08-02T10:53:32.159Z,53.20
2022-08-02T10:56:03.047Z,53.00
2022-08-02T10:58:32.589Z,52.80
2022-08-02T11:01:38.953Z,53.00
2022-08-02T11:04:10.462Z,53.00
2022-08-02T11:07:11.470Z,52.90
2022-08-02T11:09:38.480Z,52.60
2022-08-02T11:12:15.126Z,52.70
2022-08-02T11:15:00.879Z,52.80
2022-08-02T11:17:40.989Z,52.40
2022-08-02T11:20:11.226Z,51.90
2022-08-02T11:22:40.189Z,50.00
2022-08-02T11:25:22.335Z,50.50
2022-08-02T11:27:50.893Z,50.20
2022-08-02T11:30:27.274Z,49.60
2022-08-02T11:32:59.040Z,49.10
2022-08-02T11:35:34.491Z,48.10
2022-08-02T11:38:14.513Z,46.80
2022-08-02T11:40:43.993Z,46.10
2022-08-02T11:43:24.005Z,45.50
2022-08-02T11:45:52.449Z,45.20
2022-08-02T11:48:38.839Z,45.00
2022-08-02T11:51:17.260Z,44.70
2022-08-02T11:53:53.686Z,43.80
2022-08-02T11:56:32.825Z,44.90
2022-08-02T11:59:10.426Z,44.20
2022-08-02T12:01:45.647Z,42.70
2022-08-02T12:04:19.410Z,43.00
2022-08-02T12:07:01.054Z,43.50
2022-08-02T12:09:30.461Z,42.80
2022-08-02T12:11:59.017Z,43.30
2022-08-02T12:14:28.038Z,42.50
2022-08-02T12:17:14.465Z,42.60
2022-08-02T12:19:42.622Z,40.30
2022-08-02T12:22:27.335Z,41.10
2022-08-02T12:24:57.167Z,40.10
2022-08-02T12:27:40.492Z,40.50
2022-08-02T12:30:10.538Z,38.00
2022-08-02T12:32:38.358Z,36.50
2022-08-02T12:35:14.767Z,36.50
2022-08-02T12:37:54.076Z,36.50
2022-08-02T12:40:25.681Z,37.70
2022-08-02T12:42:57.055Z,38.00
2022-08-02T12:45:25.499Z,38.50
2022-08-02T12:47:55.514Z,38.60
2022-08-02T12:50:37.347Z,38.00
2022-08-02T12:53:09.766Z,37.80
2022-08-02T12:56:01.905Z,36.40
2022-08-02T12:58:31.826Z,37.10
2022-08-02T13:01:01.038Z,37.80
2022-08-02T13:04:09.362Z,37.20
2022-08-02T13:06:42.059Z,37.40
2022-08-02T13:09:15.993Z,37.70
2022-08-02T13:11:44.178Z,38.20
2022-08-02T13:14:13.388Z,37.80
2022-08-02T13:16:43.490Z,38.10
2022-08-02T13:19:10.459Z,38.60
2022-08-02T13:21:41.371Z,38.50
2022-08-02T13:24:38.767Z,38.40
2022-08-02T13:27:11.722Z,38.90
2022-08-02T13:29:38.649Z,38.60
2022-08-02T13:32:06.330Z,38.10
2022-08-02T13:34:33.338Z,37.80
2022-08-02T13:37:00.225Z,38.10
2022-08-02T13:39:27.104Z,38.70
2022-08-02T13:41:54.074Z,38.40
2022-08-02T13:44:21.352Z,38.50
2022-08-02T13:46:48.401Z,38.60
2022-08-02T13:49:19.353Z,39.10
2022-08-02T13:51:47.977Z,38.70
2022-08-02T13:54:15.864Z,37.70
2022-08-02T13:56:43.178Z,37.10
2022-08-02T13:59:54.304Z,38.30
2022-08-02T14:01:58.534Z,38.70
2022-08-02T14:04:25.972Z,38.40
2022-08-02T14:06:52.883Z,38.30
2022-08-02T14:09:19.808Z,38.40
2022-08-02T14:11:48.380Z,38.70
2022-08-02T14:14:17.246Z,38.50
2022-08-02T14:16:45.532Z,38.50
2022-08-02T14:19:16.306Z,38.10
2022-08-02T14:21:48.569Z,37.40
2022-08-02T14:24:21.150Z,38.00
2022-08-02T14:26:48.949Z,37.70
2022-08-02T14:29:16.684Z,38.20
2022-08-02T14:31:45.116Z,38.50
2022-08-02T14:34:13.625Z,38.90
2022-08-02T14:36:40.822Z,38.50
2022-08-02T14:39:07.852Z,38.90
2022-08-02T14:42:00.078Z,38.70
2022-08-02T14:44:23.796Z,38.40
2022-08-02T14:46:51.956Z,38.60
2022-08-02T14:49:25.318Z,38.20
2022-08-02T14:51:56.685Z,38.40
2022-08-02T14:54:30.958Z,38.40
2022-08-02T14:57:04.038Z,38.30
2022-08-02T14:59:31.175Z,37.10
2022-08-02T15:01:59.416Z,37.20
2022-08-02T15:04:26.468Z,37.90
2022-08-02T15:06:54.661Z,37.50
2022-08-02T15:09:22.404Z,38.10
2022-08-02T15:11:49.837Z,37.80
2022-08-02T15:14:21.725Z,37.40
2022-08-02T15:16:58.000Z,37.30
2022-08-02T15:19:56.156Z,37.70
2022-08-02T15:22:19.349Z,37.90
2022-08-02T15:24:47.805Z,38.50
2022-08-02T15:27:15.515Z,38.30
2022-08-02T15:29:44.390Z,39.70
2022-08-02T15:32:11.971Z,38.70
2022-08-02T15:34:39.766Z,38.50
2022-08-02T15:37:06.781Z,38.50
2022-08-02T15:39:33.672Z,38.90
2022-08-02T15:42:00.589Z,38.80
2022-08-02T15:44:27.553Z,38.70
2022-08-02T15:46:54.622Z,39.00
2022-08-02T15:49:23.674Z,39.00
2022-08-02T15:51:52.196Z,38.60
2022-08-02T15:54:19.528Z,38.20
2022-08-02T15:56:46.510Z,38.30
2022-08-02T15:59:13.434Z,38.60
2022-08-02T16:01:44.898Z,38.70
2022-08-02T16:04:15.951Z,39.30
2022-08-02T16:06:43.743Z,39.70
2022-08-02T16:09:10.854Z,39.50
2022-08-02T16:11:38.167Z,39.50
2022-08-02T16:14:05.097Z,39.10
2022-08-02T16:16:35.191Z,39.20
2022-08-02T16:19:46.899Z,39.50
2022-08-02T16:21:53.431Z,39.50
2022-08-02T16:24:20.373Z,40.20
2022-08-02T16:26:47.609Z,40.30
2022-08-02T16:29:19.290Z,40.50
2022-08-02T16:31:47.942Z,40.30
2022-08-02T16:34:16.557Z,40.10
2022-08-02T16:36:43.850Z,40.30
2022-08-02T16:39:10.811Z,40.50
2022-08-02T16:41:50.463Z,40.50
2022-08-02T16:44:18.371Z,40.70
2022-08-02T16:47:01.018Z,40.80
2022-08-02T16:50:06.613Z,40.90
2022-08-02T16:52:18.897Z,41.20
2022-08-02T16:54:49.468Z,41.20
2022-08-02T16:57:19.701Z,41.50
2022-08-02T16:59:57.484Z,41.20
2022-08-02T17:02:28.566Z,41.50
2022-08-02T17:04:56.740Z,41.50
2022-08-02T17:08:15.198Z,41.40
2022-08-02T17:10:11.015Z,41.10
2022-08-02T17:12:39.370Z,41.50
2022-08-02T17:16:01.190Z,41.70
2022-08-02T17:17:55.091Z,41.80
2022-08-02T17:20:22.029Z,41.70
2022-08-02T17:22:51.982Z,41.90
2022-08-02T17:25:20.055Z,42.00
2022-08-02T17:27:47.397Z,42.10
2022-08-02T17:30:26.882Z,42.20
2022-08-02T17:32:57.904Z,42.30
2022-08-02T17:35:39.996Z,42.40
2022-08-02T17:38:17.679Z,42.40
2022-08-02T17:40:45.168Z,42.40
2022-08-02T17:43:14.740Z,42.50
2022-08-02T17:46:00.580Z,42.40
2022-08-02T17:48:55.027Z,42.60
2022-08-02T17:52:15.690Z,42.60
2022-08-02T17:54:10.811Z,42.70
2022-08-02T17:56:38.124Z,42.60
2022-08-02T17:59:20.430Z,42.70
2022-08-02T18:01:54.407Z,42.80
2022-08-02T18:04:26.904Z,42.80
2022-08-02T18:07:04.464Z,43.00
2022-08-02T18:09:36.517Z,43.20
2022-08-02T18:12:03.756Z,43.10
2022-08-02T18:14:30.706Z,43.20
2022-08-02T18:16:57.700Z,43.40
2022-08-02T18:22:11.893Z,43.80
2022-08-02T18:24:40.560Z,43.80
2022-08-02T18:27:07.695Z,43.90
2022-08-02T18:29:38.574Z,44.00
2022-08-02T18:32:06.095Z,44.60
2022-08-02T18:34:39.213Z,44.20
2022-08-02T18:37:07.110Z,44.70
2022-08-02T18:39:38.442Z,46.10
2022-08-02T18:42:05.647Z,47.00
2022-08-02T18:44:32.544Z,47.50
2022-08-02T18:47:00.561Z,47.40
2022-08-02T18:49:46.196Z,48.00
2022-08-02T18:52:14.469Z,48.20
2022-08-02T18:54:41.653Z,48.50
2022-08-02T18:58:02.201Z,48.30
2022-08-02T18:59:56.375Z,48.50
2022-08-02T19:02:24.943Z,48.50
2022-08-02T19:04:55.007Z,49.30
2022-08-02T19:07:22.492Z,49.60
2022-08-02T19:09:49.649Z,49.90
2022-08-02T19:12:28.035Z,50.00
2022-08-02T19:14:56.101Z,50.50
2022-08-02T19:17:55.376Z,50.80
2022-08-02T19:20:11.195Z,51.10
2022-08-02T19:22:46.708Z,51.10
2022-08-02T19:25:21.133Z,51.20
2022-08-02T19:27:55.389Z,51.10
2022-08-02T19:30:22.459Z,51.50
2022-08-02T19:32:59.762Z,51.40
2022-08-02T19:35:34.184Z,51.60
2022-08-02T19:38:09.554Z,52.00
2022-08-02T19:40:38.598Z,52.10
2022-08-02T19:44:27.557Z,52.00
2022-08-02T19:45:57.063Z,52.30
2022-08-02T19:48:27.200Z,52.40
2022-08-02T19:51:12.917Z,52.80
2022-08-02T19:53:46.619Z,53.30
2022-08-02T19:56:24.689Z,53.30
2022-08-02T19:58:54.746Z,53.60
2022-08-02T20:01:28.430Z,53.80
2022-08-02T20:04:13.351Z,53.90
2022-08-02T20:09:33.539Z,54.10
2022-08-02T20:12:14.158Z,53.90
2022-08-02T20:14:51.136Z,54.00
2022-08-02T20:17:20.735Z,54.20
2022-08-02T20:19:47.983Z,54.20
2022-08-02T20:22:16.178Z,54.20
2022-08-02T20:24:43.463Z,54.20
2022-08-02T20:27:17.017Z,54.30
2022-08-02T20:30:00.773Z,54.50
2022-08-02T20:32:27.688Z,54.40
2022-08-02T20:34:55.365Z,54.50
2022-08-02T20:37:56.056Z,54.50
2022-08-02T20:40:10.444Z,54.40
2022-08-02T20:42:44.041Z,54.30
2022-08-02T20:45:14.583Z,54.30
2022-08-02T20:47:42.507Z,55.20
2022-08-02T20:50:32.182Z,54.40
2022-08-02T20:53:04.155Z,54.40
2022-08-02T20:55:32.058Z,54.50
2022-08-02T20:58:02.992Z,54.40
2022-08-02T21:00:31.683Z,54.30
2022-08-02T21:03:04.434Z,54.30
2022-08-02T21:08:21.247Z,54.60
2022-08-02T21:10:50.316Z,54.60
2022-08-02T21:13:18.882Z,54.90
2022-08-02T21:15:50.165Z,55.00
2022-08-02T21:18:28.735Z,55.30
2022-08-02T21:21:04.133Z,55.30
2022-08-02T21:23:36.520Z,55.30
2022-08-02T21:26:19.742Z,55.80
2022-08-02T21:28:52.813Z,56.00
2022-08-02T21:31:19.732Z,56.30
2022-08-02T21:33:58.539Z,56.30
2022-08-02T21:36:33.705Z,56.20
2022-08-02T21:39:09.202Z,56.50
2022-08-02T21:41:46.504Z,56.70
2022-08-02T21:44:20.596Z,56.80
2022-08-02T21:46:50.804Z,56.90
2022-08-02T21:49:20.756Z,57.00
2022-08-02T21:51:54.564Z,57.00
2022-08-02T21:54:22.056Z,56.90
2022-08-02T21:56:51.977Z,57.10
2022-08-02T21:59:25.745Z,57.10
2022-08-02T22:01:56.851Z,57.20
2022-08-02T22:04:27.737Z,57.40
2022-08-02T22:06:55.618Z,57.40
2022-08-02T22:09:42.065Z,57.40
2022-08-02T22:12:16.918Z,57.30
2022-08-02T22:14:54.950Z,57.20
2022-08-02T22:17:51.963Z,57.10
2022-08-02T22:20:19.686Z,57.20
2022-08-02T22:22:50.595Z,57.20
2022-08-02T22:28:35.818Z,57.00
2022-08-02T22:30:57.219Z,57.00
2022-08-02T22:33:47.396Z,56.80
2022-08-02T22:36:30.386Z,57.10
2022-08-02T22:38:57.931Z,57.00
2022-08-02T22:41:24.836Z,57.00
2022-08-02T22:43:51.753Z,57.10
2022-08-02T22:46:18.932Z,57.20
2022-08-02T22:48:53.636Z,57.30
2022-08-02T22:51:21.283Z,57.40
2022-08-02T22:53:48.191Z,57.30
2022-08-02T22:56:15.945Z,57.40
2022-08-02T22:58:54.483Z,53.90
2022-08-02T22:58:58.666Z,43.70
2022-08-02T22:59:04.824Z,57.10
2022-08-02T22:59:11.980Z,54.50
2022-08-02T23:01:30.254Z,57.30
2022-08-02T23:03:57.248Z,57.30
2022-08-02T23:06:24.156Z,57.50
2022-08-02T23:08:51.105Z,57.50
2022-08-02T23:11:18.103Z,57.80
2022-08-02T23:13:45.073Z,57.90
2022-08-02T23:16:30.722Z,58.10
2022-08-02T23:19:16.239Z,58.40
2022-08-02T23:22:00.739Z,58.90
2022-08-02T23:24:32.902Z,59.00
2022-08-02T23:26:59.854Z,59.30
2022-08-02T23:29:26.835Z,59.40
2022-08-02T23:31:53.735Z,59.40
2022-08-02T23:34:21.872Z,59.60
2022-08-02T23:36:48.804Z,59.80
2022-08-02T23:39:15.725Z,60.00
2022-08-02T23:41:42.674Z,60.00
2022-08-02T23:44:14.503Z,60.10
2022-08-02T23:46:46.692Z,60.00
2022-08-02T23:49:15.726Z,60.10
2022-08-02T23:51:43.183Z,60.00
2022-08-02T23:54:11.298Z,60.00
2022-08-02T23:56:39.141Z,60.00
2022-08-02T23:59:09.844Z,60.00
